sensor_id;sensor_type;location;lat;lon;timestamp;temperature;humidity
24085;DHT22;12268;52.110;5.548;2023-09-07T00:00:48;22.40;99.90
24085;DHT22;12268;52.110;5.548;2023-09-07T00:03:14;22.30;99.90
24085;DHT22;12268;52.110;5.548;2023-09-07T00:05:40;22.30;99.90
24085;DHT22;12268;52.110;5.548;2023-09-07T00:08:05;22.30;99.90
24085;DHT22;12268;52.110;5.548;2023-09-07T00:10:33;22.30;99.90
24085;DHT22;12268;52.110;5.548;2023-09-07T00:13:02;22.30;99.90
24085;DHT22;12268;52.110;5.548;2023-09-07T00:15:28;22.20;99.90
24085;DHT22;12268;52.110;5.548;2023-09-07T00:17:55;22.20;99.90
24085;DHT22;12268;52.110;5.548;2023-09-07T00:20:21;22.20;99.90
24085;DHT22;12268;52.110;5.548;2023-09-07T00:22:47;22.20;99.90
24085;DHT22;12268;52.110;5.548;2023-09-07T00:25:13;22.20;99.90
24085;DHT22;12268;52.110;5.548;2023-09-07T00:27:39;22.20;99.90
24085;DHT22;12268;52.110;5.548;2023-09-07T00:30:05;22.10;99.90
24085;DHT22;12268;52.110;5.548;2023-09-07T00:32:32;22.10;99.90
24085;DHT22;12268;52.110;5.548;2023-09-07T00:34:59;22.10;99.90
24085;DHT22;12268;52.110;5.548;2023-09-07T00:37:24;22.10;99.90
24085;DHT22;12268;52.110;5.548;2023-09-07T00:39:50;22.10;99.90
24085;DHT22;12268;52.110;5.548;2023-09-07T00:42:16;22.10;99.90
24085;DHT22;12268;52.110;5.548;2023-09-07T00:44:41;22.00;99.90
24085;DHT22;12268;52.110;5.548;2023-09-07T00:47:07;22.00;99.90
24085;DHT22;12268;52.110;5.548;2023-09-07T00:49:32;22.00;99.90
24085;DHT22;12268;52.110;5.548;2023-09-07T00:51:58;22.00;99.90
24085;DHT22;12268;52.110;5.548;2023-09-07T00:54:24;22.00;99.90
24085;DHT22;12268;52.110;5.548;2023-09-07T00:56:49;22.00;99.90
24085;DHT22;12268;52.110;5.548;2023-09-07T00:59:15;21.90;99.90
24085;DHT22;12268;52.110;5.548;2023-09-07T01:01:40;21.80;99.90
24085;DHT22;12268;52.110;5.548;2023-09-07T01:04:08;21.80;99.90
24085;DHT22;12268;52.110;5.548;2023-09-07T01:06:39;21.80;99.90
24085;DHT22;12268;52.110;5.548;2023-09-07T01:09:10;21.80;99.90
24085;DHT22;12268;52.110;5.548;2023-09-07T01:11:38;21.70;99.90
24085;DHT22;12268;52.110;5.548;2023-09-07T01:14:04;21.70;99.90
24085;DHT22;12268;52.110;5.548;2023-09-07T01:16:31;21.60;99.90
24085;DHT22;12268;52.110;5.548;2023-09-07T01:19:00;21.60;99.90
24085;DHT22;12268;52.110;5.548;2023-09-07T01:21:26;21.50;99.90
24085;DHT22;12268;52.110;5.548;2023-09-07T01:23:53;21.50;99.90
24085;DHT22;12268;52.110;5.548;2023-09-07T01:26:19;21.50;99.90
24085;DHT22;12268;52.110;5.548;2023-09-07T01:28:45;21.50;99.90
24085;DHT22;12268;52.110;5.548;2023-09-07T01:31:10;21.50;99.90
24085;DHT22;12268;52.110;5.548;2023-09-07T01:33:36;21.50;99.90
24085;DHT22;12268;52.110;5.548;2023-09-07T01:36:01;21.50;99.90
24085;DHT22;12268;52.110;5.548;2023-09-07T01:38:27;21.40;99.90
24085;DHT22;12268;52.110;5.548;2023-09-07T01:40:53;21.40;99.90
24085;DHT22;12268;52.110;5.548;2023-09-07T01:43:20;21.40;99.90
24085;DHT22;12268;52.110;5.548;2023-09-07T01:45:45;21.40;99.90
24085;DHT22;12268;52.110;5.548;2023-09-07T01:48:13;21.40;99.90
24085;DHT22;12268;52.110;5.548;2023-09-07T01:50:39;21.30;99.90
24085;DHT22;12268;52.110;5.548;2023-09-07T01:53:04;21.30;99.90
24085;DHT22;12268;52.110;5.548;2023-09-07T01:55:33;21.30;99.90
24085;DHT22;12268;52.110;5.548;2023-09-07T01:57:59;21.30;99.90
24085;DHT22;12268;52.110;5.548;2023-09-07T02:00:25;21.30;99.90
24085;DHT22;12268;52.110;5.548;2023-09-07T02:02:50;21.30;99.90
24085;DHT22;12268;52.110;5.548;2023-09-07T02:05:16;21.40;99.90
24085;DHT22;12268;52.110;5.548;2023-09-07T02:07:42;21.40;99.90
24085;DHT22;12268;52.110;5.548;2023-09-07T02:10:08;21.40;99.90
24085;DHT22;12268;52.110;5.548;2023-09-07T02:12:34;21.40;99.90
24085;DHT22;12268;52.110;5.548;2023-09-07T02:15:02;21.40;99.90
24085;DHT22;12268;52.110;5.548;2023-09-07T02:17:28;21.40;99.90
24085;DHT22;12268;52.110;5.548;2023-09-07T02:19:54;21.40;99.90
24085;DHT22;12268;52.110;5.548;2023-09-07T02:22:19;21.40;99.90
24085;DHT22;12268;52.110;5.548;2023-09-07T02:24:45;21.40;99.90
24085;DHT22;12268;52.110;5.548;2023-09-07T02:27:10;21.40;99.90
24085;DHT22;12268;52.110;5.548;2023-09-07T02:29:36;21.30;99.90
24085;DHT22;12268;52.110;5.548;2023-09-07T02:32:02;21.30;99.90
24085;DHT22;12268;52.110;5.548;2023-09-07T02:34:28;21.30;99.90
24085;DHT22;12268;52.110;5.548;2023-09-07T02:36:55;21.30;99.90
24085;DHT22;12268;52.110;5.548;2023-09-07T02:39:22;21.30;99.90
24085;DHT22;12268;52.110;5.548;2023-09-07T02:41:51;21.30;99.90
24085;DHT22;12268;52.110;5.548;2023-09-07T02:44:17;21.20;99.90
24085;DHT22;12268;52.110;5.548;2023-09-07T02:46:42;21.10;99.90
24085;DHT22;12268;52.110;5.548;2023-09-07T02:49:08;21.10;99.90
24085;DHT22;12268;52.110;5.548;2023-09-07T02:51:33;21.10;99.90
24085;DHT22;12268;52.110;5.548;2023-09-07T02:54:01;21.00;99.90
24085;DHT22;12268;52.110;5.548;2023-09-07T02:56:26;21.00;99.90
24085;DHT22;12268;52.110;5.548;2023-09-07T02:58:52;21.00;99.90
24085;DHT22;12268;52.110;5.548;2023-09-07T03:01:18;21.00;99.90
24085;DHT22;12268;52.110;5.548;2023-09-07T03:03:46;21.00;99.90
24085;DHT22;12268;52.110;5.548;2023-09-07T03:06:13;21.00;99.90
24085;DHT22;12268;52.110;5.548;2023-09-07T03:08:40;21.00;99.90
24085;DHT22;12268;52.110;5.548;2023-09-07T03:11:06;21.00;99.90
24085;DHT22;12268;52.110;5.548;2023-09-07T03:13:32;21.00;99.90
24085;DHT22;12268;52.110;5.548;2023-09-07T03:15:58;21.00;99.90
24085;DHT22;12268;52.110;5.548;2023-09-07T03:18:24;21.00;99.90
24085;DHT22;12268;52.110;5.548;2023-09-07T03:20:50;21.00;99.90
24085;DHT22;12268;52.110;5.548;2023-09-07T03:23:16;21.00;99.90
24085;DHT22;12268;52.110;5.548;2023-09-07T03:25:41;21.00;99.90
24085;DHT22;12268;52.110;5.548;2023-09-07T03:28:07;20.90;99.90
24085;DHT22;12268;52.110;5.548;2023-09-07T03:30:33;20.90;99.90
24085;DHT22;12268;52.110;5.548;2023-09-07T03:32:58;20.80;99.90
24085;DHT22;12268;52.110;5.548;2023-09-07T03:35:24;20.80;99.90
24085;DHT22;12268;52.110;5.548;2023-09-07T03:37:49;20.80;99.90
24085;DHT22;12268;52.110;5.548;2023-09-07T03:40:15;20.80;99.90
24085;DHT22;12268;52.110;5.548;2023-09-07T03:42:41;20.80;99.90
24085;DHT22;12268;52.110;5.548;2023-09-07T03:45:07;20.80;99.90
24085;DHT22;12268;52.110;5.548;2023-09-07T03:47:33;20.80;99.90
24085;DHT22;12268;52.110;5.548;2023-09-07T03:49:59;20.80;99.90
24085;DHT22;12268;52.110;5.548;2023-09-07T03:52:25;20.80;99.90
24085;DHT22;12268;52.110;5.548;2023-09-07T03:54:53;20.80;99.90
24085;DHT22;12268;52.110;5.548;2023-09-07T03:57:19;20.80;99.90
24085;DHT22;12268;52.110;5.548;2023-09-07T03:59:46;20.80;99.90
24085;DHT22;12268;52.110;5.548;2023-09-07T04:02:11;20.80;99.90
24085;DHT22;12268;52.110;5.548;2023-09-07T04:04:38;20.80;99.90
24085;DHT22;12268;52.110;5.548;2023-09-07T04:07:04;20.80;99.90
24085;DHT22;12268;52.110;5.548;2023-09-07T04:09:30;20.80;99.90
24085;DHT22;12268;52.110;5.548;2023-09-07T04:11:56;20.80;99.90
24085;DHT22;12268;52.110;5.548;2023-09-07T04:14:21;20.80;99.90
24085;DHT22;12268;52.110;5.548;2023-09-07T04:16:47;20.90;99.90
24085;DHT22;12268;52.110;5.548;2023-09-07T04:19:12;20.80;99.90
24085;DHT22;12268;52.110;5.548;2023-09-07T04:21:38;20.90;99.90
24085;DHT22;12268;52.110;5.548;2023-09-07T04:24:04;20.90;99.90
24085;DHT22;12268;52.110;5.548;2023-09-07T04:26:30;20.90;99.90
24085;DHT22;12268;52.110;5.548;2023-09-07T04:28:55;20.90;99.90
24085;DHT22;12268;52.110;5.548;2023-09-07T04:31:21;20.90;99.90
24085;DHT22;12268;52.110;5.548;2023-09-07T04:33:47;20.90;99.90
24085;DHT22;12268;52.110;5.548;2023-09-07T04:36:15;20.80;99.90
24085;DHT22;12268;52.110;5.548;2023-09-07T04:38:41;20.80;99.90
24085;DHT22;12268;52.110;5.548;2023-09-07T04:41:08;20.80;99.90
24085;DHT22;12268;52.110;5.548;2023-09-07T04:43:34;20.80;99.90
24085;DHT22;12268;52.110;5.548;2023-09-07T04:46:00;20.80;99.90
24085;DHT22;12268;52.110;5.548;2023-09-07T04:48:26;20.70;99.90
24085;DHT22;12268;52.110;5.548;2023-09-07T04:50:58;20.70;99.90
24085;DHT22;12268;52.110;5.548;2023-09-07T04:53:24;20.70;99.90
24085;DHT22;12268;52.110;5.548;2023-09-07T04:55:49;20.70;99.90
24085;DHT22;12268;52.110;5.548;2023-09-07T04:58:15;20.70;99.90
24085;DHT22;12268;52.110;5.548;2023-09-07T05:00:40;20.70;99.90
24085;DHT22;12268;52.110;5.548;2023-09-07T05:03:06;20.70;99.90
24085;DHT22;12268;52.110;5.548;2023-09-07T05:05:31;20.70;99.90
24085;DHT22;12268;52.110;5.548;2023-09-07T05:07:57;20.60;99.90
24085;DHT22;12268;52.110;5.548;2023-09-07T05:10:22;20.60;99.90
24085;DHT22;12268;52.110;5.548;2023-09-07T05:12:48;20.60;99.90
24085;DHT22;12268;52.110;5.548;2023-09-07T05:15:13;20.60;99.90
24085;DHT22;12268;52.110;5.548;2023-09-07T05:17:39;20.60;99.90
24085;DHT22;12268;52.110;5.548;2023-09-07T05:20:05;20.60;99.90
24085;DHT22;12268;52.110;5.548;2023-09-07T05:22:31;20.60;99.90
24085;DHT22;12268;52.110;5.548;2023-09-07T05:24:59;20.70;99.90
24085;DHT22;12268;52.110;5.548;2023-09-07T05:27:25;20.70;99.90
24085;DHT22;12268;52.110;5.548;2023-09-07T05:29:50;20.80;99.90
24085;DHT22;12268;52.110;5.548;2023-09-07T05:32:16;20.70;99.90
24085;DHT22;12268;52.110;5.548;2023-09-07T05:34:41;20.70;99.90
24085;DHT22;12268;52.110;5.548;2023-09-07T05:37:07;20.80;99.90
24085;DHT22;12268;52.110;5.548;2023-09-07T05:39:33;20.90;99.90
24085;DHT22;12268;52.110;5.548;2023-09-07T05:41:58;20.90;99.90
24085;DHT22;12268;52.110;5.548;2023-09-07T05:44:24;21.00;99.90
24085;DHT22;12268;52.110;5.548;2023-09-07T05:46:49;21.00;99.90
24085;DHT22;12268;52.110;5.548;2023-09-07T05:49:15;21.00;99.90
24085;DHT22;12268;52.110;5.548;2023-09-07T05:51:40;21.10;99.90
24085;DHT22;12268;52.110;5.548;2023-09-07T05:54:06;21.10;99.90
24085;DHT22;12268;52.110;5.548;2023-09-07T05:56:31;21.10;99.90
24085;DHT22;12268;52.110;5.548;2023-09-07T05:58:58;21.10;99.90
24085;DHT22;12268;52.110;5.548;2023-09-07T06:01:24;21.20;99.90
24085;DHT22;12268;52.110;5.548;2023-09-07T06:03:50;21.20;99.90
24085;DHT22;12268;52.110;5.548;2023-09-07T06:06:15;21.20;99.90
24085;DHT22;12268;52.110;5.548;2023-09-07T06:08:41;21.30;99.90
24085;DHT22;12268;52.110;5.548;2023-09-07T06:11:06;21.40;99.90
24085;DHT22;12268;52.110;5.548;2023-09-07T06:13:32;21.40;99.90
24085;DHT22;12268;52.110;5.548;2023-09-07T06:15:57;21.50;99.90
24085;DHT22;12268;52.110;5.548;2023-09-07T06:18:25;21.50;99.90
24085;DHT22;12268;52.110;5.548;2023-09-07T06:20:51;21.50;99.90
24085;DHT22;12268;52.110;5.548;2023-09-07T06:23:16;21.60;99.90
24085;DHT22;12268;52.110;5.548;2023-09-07T06:25:42;21.70;99.90
24085;DHT22;12268;52.110;5.548;2023-09-07T06:28:07;21.70;99.90
24085;DHT22;12268;52.110;5.548;2023-09-07T06:30:33;21.80;99.90
24085;DHT22;12268;52.110;5.548;2023-09-07T06:32:59;22.00;99.90
24085;DHT22;12268;52.110;5.548;2023-09-07T06:35:24;22.00;99.90
24085;DHT22;12268;52.110;5.548;2023-09-07T06:37:50;22.10;99.90
24085;DHT22;12268;52.110;5.548;2023-09-07T06:40:16;22.20;99.90
24085;DHT22;12268;52.110;5.548;2023-09-07T06:42:43;22.30;99.90
24085;DHT22;12268;52.110;5.548;2023-09-07T06:45:09;22.40;99.90
24085;DHT22;12268;52.110;5.548;2023-09-07T06:47:35;22.50;99.90
24085;DHT22;12268;52.110;5.548;2023-09-07T06:50:01;22.60;99.90
24085;DHT22;12268;52.110;5.548;2023-09-07T06:52:27;22.90;99.90
24085;DHT22;12268;52.110;5.548;2023-09-07T06:54:55;23.40;99.90
24085;DHT22;12268;52.110;5.548;2023-09-07T06:57:21;23.60;99.90
24085;DHT22;12268;52.110;5.548;2023-09-07T06:59:47;23.90;99.90
24085;DHT22;12268;52.110;5.548;2023-09-07T07:02:12;24.00;99.90
24085;DHT22;12268;52.110;5.548;2023-09-07T07:04:38;24.20;99.90
24085;DHT22;12268;52.110;5.548;2023-09-07T07:07:04;24.40;99.90
24085;DHT22;12268;52.110;5.548;2023-09-07T07:09:31;24.40;99.90
24085;DHT22;12268;52.110;5.548;2023-09-07T07:11:59;24.40;99.90
24085;DHT22;12268;52.110;5.548;2023-09-07T07:14:25;24.40;99.90
24085;DHT22;12268;52.110;5.548;2023-09-07T07:16:50;24.40;99.90
24085;DHT22;12268;52.110;5.548;2023-09-07T07:19:16;24.40;99.90
24085;DHT22;12268;52.110;5.548;2023-09-07T07:21:42;24.40;99.90
24085;DHT22;12268;52.110;5.548;2023-09-07T07:24:07;24.30;99.90
24085;DHT22;12268;52.110;5.548;2023-09-07T07:26:33;24.30;99.90
24085;DHT22;12268;52.110;5.548;2023-09-07T07:28:59;24.20;99.90
24085;DHT22;12268;52.110;5.548;2023-09-07T07:31:24;24.40;99.90
24085;DHT22;12268;52.110;5.548;2023-09-07T07:33:50;24.50;99.90
24085;DHT22;12268;52.110;5.548;2023-09-07T07:36:15;24.70;99.90
24085;DHT22;12268;52.110;5.548;2023-09-07T07:38:41;24.90;99.90
24085;DHT22;12268;52.110;5.548;2023-09-07T07:41:07;24.90;99.90
24085;DHT22;12268;52.110;5.548;2023-09-07T07:43:33;25.00;99.90
24085;DHT22;12268;52.110;5.548;2023-09-07T07:45:59;25.10;99.90
24085;DHT22;12268;52.110;5.548;2023-09-07T07:48:24;25.70;99.90
24085;DHT22;12268;52.110;5.548;2023-09-07T07:50:50;26.40;99.90
24085;DHT22;12268;52.110;5.548;2023-09-07T07:53:16;26.60;99.90
24085;DHT22;12268;52.110;5.548;2023-09-07T07:55:42;26.60;99.90
24085;DHT22;12268;52.110;5.548;2023-09-07T07:58:08;27.00;99.90
24085;DHT22;12268;52.110;5.548;2023-09-07T08:00:35;28.20;99.90
24085;DHT22;12268;52.110;5.548;2023-09-07T08:03:01;29.60;99.90
24085;DHT22;12268;52.110;5.548;2023-09-07T08:05:31;29.80;99.90
24085;DHT22;12268;52.110;5.548;2023-09-07T08:07:57;29.40;99.90
24085;DHT22;12268;52.110;5.548;2023-09-07T08:10:22;29.20;99.90
24085;DHT22;12268;52.110;5.548;2023-09-07T08:12:48;29.10;99.90
24085;DHT22;12268;52.110;5.548;2023-09-07T08:15:16;28.80;99.90
24085;DHT22;12268;52.110;5.548;2023-09-07T08:17:45;28.50;99.90
24085;DHT22;12268;52.110;5.548;2023-09-07T08:20:11;28.30;99.90
24085;DHT22;12268;52.110;5.548;2023-09-07T08:22:36;28.10;99.90
24085;DHT22;12268;52.110;5.548;2023-09-07T08:25:03;27.90;99.90
24085;DHT22;12268;52.110;5.548;2023-09-07T08:27:28;27.70;99.90
24085;DHT22;12268;52.110;5.548;2023-09-07T08:29:54;27.90;99.90
24085;DHT22;12268;52.110;5.548;2023-09-07T08:32:19;28.90;99.90
24085;DHT22;12268;52.110;5.548;2023-09-07T08:34:46;30.50;99.90
24085;DHT22;12268;52.110;5.548;2023-09-07T08:37:11;31.00;99.90
24085;DHT22;12268;52.110;5.548;2023-09-07T08:39:37;30.70;99.90
24085;DHT22;12268;52.110;5.548;2023-09-07T08:42:04;30.30;99.90
24085;DHT22;12268;52.110;5.548;2023-09-07T08:44:33;29.80;99.90
24085;DHT22;12268;52.110;5.548;2023-09-07T08:46:59;29.50;99.90
24085;DHT22;12268;52.110;5.548;2023-09-07T08:49:25;29.20;99.90
24085;DHT22;12268;52.110;5.548;2023-09-07T08:51:53;29.10;99.90
24085;DHT22;12268;52.110;5.548;2023-09-07T08:54:19;29.00;99.90
24085;DHT22;12268;52.110;5.548;2023-09-07T08:56:46;29.00;99.90
24085;DHT22;12268;52.110;5.548;2023-09-07T08:59:12;28.90;99.90
24085;DHT22;12268;52.110;5.548;2023-09-07T09:01:37;28.90;99.90
24085;DHT22;12268;52.110;5.548;2023-09-07T09:04:03;28.90;99.90
24085;DHT22;12268;52.110;5.548;2023-09-07T09:06:29;28.90;99.90
24085;DHT22;12268;52.110;5.548;2023-09-07T09:08:56;29.00;99.90
24085;DHT22;12268;52.110;5.548;2023-09-07T09:11:23;29.10;99.90
24085;DHT22;12268;52.110;5.548;2023-09-07T09:13:50;29.20;99.90
24085;DHT22;12268;52.110;5.548;2023-09-07T09:16:16;29.30;99.90
24085;DHT22;12268;52.110;5.548;2023-09-07T09:21:14;29.80;99.90
24085;DHT22;12268;52.110;5.548;2023-09-07T09:23:43;30.50;99.90
24085;DHT22;12268;52.110;5.548;2023-09-07T09:26:08;31.60;99.90
24085;DHT22;12268;52.110;5.548;2023-09-07T09:28:34;32.80;99.90
24085;DHT22;12268;52.110;5.548;2023-09-07T09:31:02;33.40;99.90
24085;DHT22;12268;52.110;5.548;2023-09-07T09:33:30;34.40;99.90
24085;DHT22;12268;52.110;5.548;2023-09-07T09:35:57;36.50;97.70
24085;DHT22;12268;52.110;5.548;2023-09-07T09:38:23;38.30;96.40
24085;DHT22;12268;52.110;5.548;2023-09-07T09:40:49;40.10;93.50
24085;DHT22;12268;52.110;5.548;2023-09-07T09:43:15;41.60;86.40
24085;DHT22;12268;52.110;5.548;2023-09-07T09:45:41;42.20;83.10
24085;DHT22;12268;52.110;5.548;2023-09-07T09:48:06;43.30;78.90
24085;DHT22;12268;52.110;5.548;2023-09-07T09:50:33;44.70;74.60
24085;DHT22;12268;52.110;5.548;2023-09-07T09:53:07;45.70;71.10
24085;DHT22;12268;52.110;5.548;2023-09-07T09:55:34;46.30;65.70
24085;DHT22;12268;52.110;5.548;2023-09-07T09:58:00;46.80;61.40
24085;DHT22;12268;52.110;5.548;2023-09-07T10:00:26;46.90;59.50
24085;DHT22;12268;52.110;5.548;2023-09-07T10:05:38;46.10;56.00
24085;DHT22;12268;52.110;5.548;2023-09-07T10:08:09;47.10;56.90
24085;DHT22;12268;52.110;5.548;2023-09-07T10:10:36;47.90;56.50
24085;DHT22;12268;52.110;5.548;2023-09-07T10:13:02;48.70;54.40
24085;DHT22;12268;52.110;5.548;2023-09-07T10:15:29;49.10;50.80
24085;DHT22;12268;52.110;5.548;2023-09-07T10:18:12;49.10;53.10
24085;DHT22;12268;52.110;5.548;2023-09-07T10:20:58;49.90;50.90
24085;DHT22;12268;52.110;5.548;2023-09-07T10:23:38;49.80;50.00
24085;DHT22;12268;52.110;5.548;2023-09-07T10:26:05;50.50;50.40
24085;DHT22;12268;52.110;5.548;2023-09-07T10:28:35;50.80;49.60
24085;DHT22;12268;52.110;5.548;2023-09-07T10:33:32;50.10;48.60
24085;DHT22;12268;52.110;5.548;2023-09-07T10:35:59;50.50;48.10
24085;DHT22;12268;52.110;5.548;2023-09-07T10:38:24;50.70;47.30
24085;DHT22;12268;52.110;5.548;2023-09-07T10:40:58;51.00;46.90
24085;DHT22;12268;52.110;5.548;2023-09-07T10:43:25;51.30;44.20
24085;DHT22;12268;52.110;5.548;2023-09-07T10:45:51;50.80;45.80
24085;DHT22;12268;52.110;5.548;2023-09-07T10:48:17;50.70;45.30
24085;DHT22;12268;52.110;5.548;2023-09-07T10:50:46;50.50;44.70
24085;DHT22;12268;52.110;5.548;2023-09-07T10:53:13;50.20;47.40
24085;DHT22;12268;52.110;5.548;2023-09-07T10:55:42;50.50;46.40
24085;DHT22;12268;52.110;5.548;2023-09-07T10:58:09;50.30;45.40
24085;DHT22;12268;52.110;5.548;2023-09-07T11:00:36;49.10;44.20
24085;DHT22;12268;52.110;5.548;2023-09-07T11:03:08;48.90;43.10
24085;DHT22;12268;52.110;5.548;2023-09-07T11:05:36;49.30;43.30
24085;DHT22;12268;52.110;5.548;2023-09-07T11:08:04;49.20;44.30
24085;DHT22;12268;52.110;5.548;2023-09-07T11:10:35;49.60;44.30
24085;DHT22;12268;52.110;5.548;2023-09-07T11:13:05;49.60;45.30
24085;DHT22;12268;52.110;5.548;2023-09-07T11:15:32;50.70;46.40
24085;DHT22;12268;52.110;5.548;2023-09-07T11:18:03;50.90;43.00
24085;DHT22;12268;52.110;5.548;2023-09-07T11:20:29;50.50;44.40
24085;DHT22;12268;52.110;5.548;2023-09-07T11:22:55;50.00;44.80
24085;DHT22;12268;52.110;5.548;2023-09-07T11:25:20;50.30;42.60
24085;DHT22;12268;52.110;5.548;2023-09-07T11:27:46;50.00;42.50
24085;DHT22;12268;52.110;5.548;2023-09-07T11:30:12;49.40;42.50
24085;DHT22;12268;52.110;5.548;2023-09-07T11:32:37;48.60;44.10
24085;DHT22;12268;52.110;5.548;2023-09-07T11:35:04;48.50;43.40
24085;DHT22;12268;52.110;5.548;2023-09-07T11:37:33;49.20;45.20
24085;DHT22;12268;52.110;5.548;2023-09-07T11:39:59;49.70;42.30
24085;DHT22;12268;52.110;5.548;2023-09-07T11:42:24;49.10;43.10
24085;DHT22;12268;52.110;5.548;2023-09-07T11:44:50;49.20;44.10
24085;DHT22;12268;52.110;5.548;2023-09-07T11:47:15;49.60;42.80
24085;DHT22;12268;52.110;5.548;2023-09-07T11:49:41;49.40;43.90
24085;DHT22;12268;52.110;5.548;2023-09-07T11:52:07;49.50;44.40
24085;DHT22;12268;52.110;5.548;2023-09-07T11:54:32;49.60;44.40
24085;DHT22;12268;52.110;5.548;2023-09-07T11:56:58;50.50;44.90
24085;DHT22;12268;52.110;5.548;2023-09-07T11:59:24;51.30;42.00
24085;DHT22;12268;52.110;5.548;2023-09-07T12:01:50;51.60;39.70
24085;DHT22;12268;52.110;5.548;2023-09-07T12:04:16;51.90;41.30
24085;DHT22;12268;52.110;5.548;2023-09-07T12:06:42;51.90;41.10
24085;DHT22;12268;52.110;5.548;2023-09-07T12:09:07;52.10;40.20
24085;DHT22;12268;52.110;5.548;2023-09-07T12:11:35;52.60;40.60
24085;DHT22;12268;52.110;5.548;2023-09-07T12:14:00;52.90;38.90
24085;DHT22;12268;52.110;5.548;2023-09-07T12:16:27;52.90;39.20
24085;DHT22;12268;52.110;5.548;2023-09-07T12:18:52;52.90;38.90
24085;DHT22;12268;52.110;5.548;2023-09-07T12:21:18;53.20;37.90
24085;DHT22;12268;52.110;5.548;2023-09-07T12:23:44;52.90;37.80
24085;DHT22;12268;52.110;5.548;2023-09-07T12:26:09;53.20;39.30
24085;DHT22;12268;52.110;5.548;2023-09-07T12:28:35;52.40;38.90
24085;DHT22;12268;52.110;5.548;2023-09-07T12:31:01;52.30;38.00
24085;DHT22;12268;52.110;5.548;2023-09-07T12:33:27;51.90;38.70
24085;DHT22;12268;52.110;5.548;2023-09-07T12:35:55;52.10;38.30
24085;DHT22;12268;52.110;5.548;2023-09-07T12:38:21;52.60;38.70
24085;DHT22;12268;52.110;5.548;2023-09-07T12:40:52;53.10;37.90
24085;DHT22;12268;52.110;5.548;2023-09-07T12:43:18;53.00;36.80
24085;DHT22;12268;52.110;5.548;2023-09-07T12:45:44;52.80;38.00
24085;DHT22;12268;52.110;5.548;2023-09-07T12:48:10;51.90;37.50
24085;DHT22;12268;52.110;5.548;2023-09-07T12:50:36;51.30;39.30
24085;DHT22;12268;52.110;5.548;2023-09-07T12:53:01;50.90;37.30
24085;DHT22;12268;52.110;5.548;2023-09-07T12:55:27;50.50;38.50
24085;DHT22;12268;52.110;5.548;2023-09-07T12:57:55;51.20;39.30
24085;DHT22;12268;52.110;5.548;2023-09-07T13:00:20;52.00;41.10
24085;DHT22;12268;52.110;5.548;2023-09-07T13:02:46;51.90;40.30
24085;DHT22;12268;52.110;5.548;2023-09-07T13:05:11;52.60;38.50
24085;DHT22;12268;52.110;5.548;2023-09-07T13:07:37;52.80;38.40
24085;DHT22;12268;52.110;5.548;2023-09-07T13:10:03;52.80;37.30
24085;DHT22;12268;52.110;5.548;2023-09-07T13:12:30;52.60;37.60
24085;DHT22;12268;52.110;5.548;2023-09-07T13:14:56;53.30;37.60
24085;DHT22;12268;52.110;5.548;2023-09-07T13:17:21;53.70;37.40
24085;DHT22;12268;52.110;5.548;2023-09-07T13:19:47;54.10;38.40
24085;DHT22;12268;52.110;5.548;2023-09-07T13:22:13;53.60;36.60
24085;DHT22;12268;52.110;5.548;2023-09-07T13:24:39;53.90;37.10
24085;DHT22;12268;52.110;5.548;2023-09-07T13:27:05;54.30;37.50
24085;DHT22;12268;52.110;5.548;2023-09-07T13:29:31;54.30;36.00
24085;DHT22;12268;52.110;5.548;2023-09-07T13:31:57;53.10;35.30
24085;DHT22;12268;52.110;5.548;2023-09-07T13:34:24;52.60;35.60
24085;DHT22;12268;52.110;5.548;2023-09-07T13:36:49;51.60;35.90
24085;DHT22;12268;52.110;5.548;2023-09-07T13:39:15;51.50;36.80
24085;DHT22;12268;52.110;5.548;2023-09-07T13:41:40;52.00;37.60
24085;DHT22;12268;52.110;5.548;2023-09-07T13:44:06;51.90;36.60
24085;DHT22;12268;52.110;5.548;2023-09-07T13:46:32;51.50;36.80
24085;DHT22;12268;52.110;5.548;2023-09-07T13:48:58;50.40;37.00
24085;DHT22;12268;52.110;5.548;2023-09-07T13:51:23;49.40;37.80
24085;DHT22;12268;52.110;5.548;2023-09-07T13:53:50;48.80;39.80
24085;DHT22;12268;52.110;5.548;2023-09-07T13:56:16;48.30;40.10
24085;DHT22;12268;52.110;5.548;2023-09-07T13:58:41;47.50;39.40
24085;DHT22;12268;52.110;5.548;2023-09-07T14:01:07;46.50;40.20
24085;DHT22;12268;52.110;5.548;2023-09-07T14:03:32;45.60;41.90
24085;DHT22;12268;52.110;5.548;2023-09-07T14:05:58;44.60;40.40
24085;DHT22;12268;52.110;5.548;2023-09-07T14:08:23;43.90;42.40
24085;DHT22;12268;52.110;5.548;2023-09-07T14:10:52;43.10;43.50
24085;DHT22;12268;52.110;5.548;2023-09-07T14:13:18;42.10;44.60
24085;DHT22;12268;52.110;5.548;2023-09-07T14:15:44;41.50;44.90
24085;DHT22;12268;52.110;5.548;2023-09-07T14:18:10;41.10;46.20
24085;DHT22;12268;52.110;5.548;2023-09-07T14:20:35;39.80;46.50
24085;DHT22;12268;52.110;5.548;2023-09-07T14:23:01;39.20;48.50
24085;DHT22;12268;52.110;5.548;2023-09-07T14:25:27;39.40;48.40
24085;DHT22;12268;52.110;5.548;2023-09-07T14:27:53;39.40;49.20
24085;DHT22;12268;52.110;5.548;2023-09-07T14:30:18;39.30;49.10
24085;DHT22;12268;52.110;5.548;2023-09-07T14:32:44;39.30;50.70
24085;DHT22;12268;52.110;5.548;2023-09-07T14:35:15;38.90;52.10
24085;DHT22;12268;52.110;5.548;2023-09-07T14:37:40;38.30;52.00
24085;DHT22;12268;52.110;5.548;2023-09-07T14:40:06;38.40;51.10
24085;DHT22;12268;52.110;5.548;2023-09-07T14:42:33;38.40;53.20
24085;DHT22;12268;52.110;5.548;2023-09-07T14:44:58;38.70;52.60
24085;DHT22;12268;52.110;5.548;2023-09-07T14:47:29;39.00;52.00
24085;DHT22;12268;52.110;5.548;2023-09-07T14:49:55;39.30;52.80
24085;DHT22;12268;52.110;5.548;2023-09-07T14:52:21;39.80;51.50
24085;DHT22;12268;52.110;5.548;2023-09-07T14:54:50;40.40;51.00
24085;DHT22;12268;52.110;5.548;2023-09-07T14:57:15;40.40;50.50
24085;DHT22;12268;52.110;5.548;2023-09-07T14:59:41;40.80;49.20
24085;DHT22;12268;52.110;5.548;2023-09-07T15:02:06;41.10;50.40
24085;DHT22;12268;52.110;5.548;2023-09-07T15:04:33;41.90;49.60
24085;DHT22;12268;52.110;5.548;2023-09-07T15:06:58;42.50;48.30
24085;DHT22;12268;52.110;5.548;2023-09-07T15:09:24;43.20;48.10
24085;DHT22;12268;52.110;5.548;2023-09-07T15:11:50;43.90;46.50
24085;DHT22;12268;52.110;5.548;2023-09-07T15:14:16;44.50;46.30
24085;DHT22;12268;52.110;5.548;2023-09-07T15:16:42;45.40;45.70
24085;DHT22;12268;52.110;5.548;2023-09-07T15:19:07;46.20;44.90
24085;DHT22;12268;52.110;5.548;2023-09-07T15:21:33;46.40;43.70
24085;DHT22;12268;52.110;5.548;2023-09-07T15:23:59;47.10;44.00
24085;DHT22;12268;52.110;5.548;2023-09-07T15:26:24;47.00;43.80
24085;DHT22;12268;52.110;5.548;2023-09-07T15:28:50;46.10;44.70
24085;DHT22;12268;52.110;5.548;2023-09-07T15:31:16;44.60;43.90